PACV METAR and TAF weather

Enter ICAO airport designator
Station Type Date Time Source
PACV METAR 2020/04/07 06:53 UTC NOAA

PACV 070653Z 00000KT 10SM SCT060 M03/M08 A2996 RMK AO2 SLP145 T10331083


Station Type Date Time Source
PACV Decoded METAR 2020/04/07 06:53 UTC NOAA

MERLE K. SMITH AIRPORT, AK, United States (PACV) 60-30N 145-29W 13M
Apr 07, 2020 - 02:53 AM EDT / 2020.04.07 0653 UTC
Wind: Calm:0
Visibility: 10 mile(s):0
Sky conditions: partly cloudy
Temperature: 26.1 F (-3.3 C)
Dew Point: 17.1 F (-8.3 C)
Relative Humidity: 68%
Pressure (altimeter): 29.96 in. Hg (1014 hPa)
ob: PACV 070653Z 00000KT 10SM SCT060 M03/M08 A2996 RMK AO2 SLP145 T10331083
cycle: 7

Station Type Date Time Source
PACV TAF 2020/04/07 06:36 UTC NOAA

TAF PACV 070535Z 0706/0806 VRB06KT P6SM SCT070
FM072000 10008KT P6SM SCT035 OVC050
FM080300 10010KT 6SM -SN BKN030

Example: see airport list